Terminal Aerodrome Forecast
Issued by NWS

Home | Current Version | Previous Version | Text Only | Print | Product List | Glossary On
Versions: 1 2 3 4 5 6 7 8 9 10 11 12 13 14 15 16
000
FTUS45 KRIW 270000 AAA
TAFCPR
TAF AMD
KCPR 270047Z 2701/2724 VRB05KT P6SM SCT110 BKN200 WS005/25030KT
     FM270230 23015G25KT P6SM FEW100 BKN200
     FM270800 23024G32KT P6SM SCT140 BKN200=

USA.gov is the U.S. government's official web portal to all federal, state and local government web resources and services.